sensor_id;sensor_type;location;lat;lon;timestamp;temperature;humidity
4787;DHT22;62338;48.832;9.422;2022-08-11T04:03:43;16.10;99.90
4787;DHT22;62338;48.832;9.422;2022-08-11T04:09:04;16.10;99.90
4787;DHT22;62338;48.832;9.422;2022-08-11T04:19:52;16.10;99.90
4787;DHT22;62338;48.832;9.422;2022-08-11T04:22:31;16.20;39.50
4787;DHT22;62338;48.832;9.422;2022-08-11T04:24:49;16.20;97.70
4787;DHT22;62338;48.832;9.422;2022-08-11T04:34:35;16.10;99.90
4787;DHT22;62338;48.832;9.422;2022-08-11T04:37:47;16.10;1.00
4787;DHT22;62338;48.832;9.422;2022-08-11T04:48:17;16.20;99.90
4787;DHT22;62338;48.832;9.422;2022-08-11T04:53:41;16.20;1.00
4787;DHT22;62338;48.832;9.422;2022-08-11T04:56:08;16.20;1.00
4787;DHT22;62338;48.832;9.422;2022-08-11T05:07:03;16.40;1.00
4787;DHT22;62338;48.832;9.422;2022-08-11T05:09:22;16.40;1.00
4787;DHT22;62338;48.832;9.422;2022-08-11T05:13:49;16.40;1.00
4787;DHT22;62338;48.832;9.422;2022-08-11T05:16:15;16.50;1.00
4787;DHT22;62338;48.832;9.422;2022-08-11T05:18:48;16.50;1.00
4787;DHT22;62338;48.832;9.422;2022-08-11T05:21:23;16.60;1.00
4787;DHT22;62338;48.832;9.422;2022-08-11T05:23:57;16.60;1.00
4787;DHT22;62338;48.832;9.422;2022-08-11T05:26:22;16.70;99.90
4787;DHT22;62338;48.832;9.422;2022-08-11T05:29:00;16.90;1.00
4787;DHT22;62338;48.832;9.422;2022-08-11T05:31:35;16.90;99.90
4787;DHT22;62338;48.832;9.422;2022-08-11T05:34:26;17.00;99.90
4787;DHT22;62338;48.832;9.422;2022-08-11T05:37:16;17.10;99.90
4787;DHT22;62338;48.832;9.422;2022-08-11T05:39:44;17.10;1.00
4787;DHT22;62338;48.832;9.422;2022-08-11T05:42:10;17.20;56.80
4787;DHT22;62338;48.832;9.422;2022-08-11T05:44:33;17.30;1.00
4787;DHT22;62338;48.832;9.422;2022-08-11T05:46:56;17.40;1.00
4787;DHT22;62338;48.832;9.422;2022-08-11T05:49:17;17.50;99.90
4787;DHT22;62338;48.832;9.422;2022-08-11T05:51:42;17.50;1.00
4787;DHT22;62338;48.832;9.422;2022-08-11T05:54:17;17.60;99.90
4787;DHT22;62338;48.832;9.422;2022-08-11T05:56:48;17.60;1.00
4787;DHT22;62338;48.832;9.422;2022-08-11T05:58:53;17.70;99.90
4787;DHT22;62338;48.832;9.422;2022-08-11T06:00:55;17.80;99.90
4787;DHT22;62338;48.832;9.422;2022-08-11T06:02:59;17.90;1.00
4787;DHT22;62338;48.832;9.422;2022-08-11T06:05:11;17.90;1.00
4787;DHT22;62338;48.832;9.422;2022-08-11T06:07:13;18.00;1.00
4787;DHT22;62338;48.832;9.422;2022-08-11T06:09:32;18.10;1.00
4787;DHT22;62338;48.832;9.422;2022-08-11T06:11:41;18.10;99.90
4787;DHT22;62338;48.832;9.422;2022-08-11T06:13:55;18.20;1.00
4787;DHT22;62338;48.832;9.422;2022-08-11T06:16:00;18.20;99.90
4787;DHT22;62338;48.832;9.422;2022-08-11T06:18:09;18.30;99.90
4787;DHT22;62338;48.832;9.422;2022-08-11T06:20:17;18.40;99.90
4787;DHT22;62338;48.832;9.422;2022-08-11T06:22:21;18.40;1.00
4787;DHT22;62338;48.832;9.422;2022-08-11T06:24:25;18.50;99.90
4787;DHT22;62338;48.832;9.422;2022-08-11T06:26:38;18.60;99.90
4787;DHT22;62338;48.832;9.422;2022-08-11T06:29:05;18.70;1.00
4787;DHT22;62338;48.832;9.422;2022-08-11T06:31:14;18.80;99.90
4787;DHT22;62338;48.832;9.422;2022-08-11T06:33:33;18.90;1.00
4787;DHT22;62338;48.832;9.422;2022-08-11T06:45:06;19.40;1.00
4787;DHT22;62338;48.832;9.422;2022-08-11T06:47:15;19.60;99.90
4787;DHT22;62338;48.832;9.422;2022-08-11T06:49:21;19.80;99.90
4787;DHT22;62338;48.832;9.422;2022-08-11T06:51:48;19.90;99.90
4787;DHT22;62338;48.832;9.422;2022-08-11T06:53:56;20.10;99.90
4787;DHT22;62338;48.832;9.422;2022-08-11T06:56:07;20.40;99.90
4787;DHT22;62338;48.832;9.422;2022-08-11T06:58:39;20.70;1.00
4787;DHT22;62338;48.832;9.422;2022-08-11T07:01:13;21.20;1.00
4787;DHT22;62338;48.832;9.422;2022-08-11T07:03:19;22.90;99.90
4787;DHT22;62338;48.832;9.422;2022-08-11T07:05:53;24.50;7.40
4787;DHT22;62338;48.832;9.422;2022-08-11T07:11:19;27.40;1.00
4787;DHT22;62338;48.832;9.422;2022-08-11T07:13:46;28.50;1.00
4787;DHT22;62338;48.832;9.422;2022-08-11T07:16:20;29.30;1.00
4787;DHT22;62338;48.832;9.422;2022-08-11T07:18:35;29.90;1.00
4787;DHT22;62338;48.832;9.422;2022-08-11T07:21:08;30.40;1.00
4787;DHT22;62338;48.832;9.422;2022-08-11T07:23:57;30.80;1.00
4787;DHT22;62338;48.832;9.422;2022-08-11T07:26:22;31.30;1.00
4787;DHT22;62338;48.832;9.422;2022-08-11T07:28:47;31.50;1.00
4787;DHT22;62338;48.832;9.422;2022-08-11T07:31:10;31.40;1.00
4787;DHT22;62338;48.832;9.422;2022-08-11T07:33:24;31.50;1.00
4787;DHT22;62338;48.832;9.422;2022-08-11T07:35:51;31.70;1.00
4787;DHT22;62338;48.832;9.422;2022-08-11T07:38:00;32.10;1.00
4787;DHT22;62338;48.832;9.422;2022-08-11T07:40:10;32.60;1.00
4787;DHT22;62338;48.832;9.422;2022-08-11T07:42:19;33.10;1.00
4787;DHT22;62338;48.832;9.422;2022-08-11T07:44:28;33.30;1.00
4787;DHT22;62338;48.832;9.422;2022-08-11T07:46:41;33.40;1.00
4787;DHT22;62338;48.832;9.422;2022-08-11T07:49:07;33.40;1.00
4787;DHT22;62338;48.832;9.422;2022-08-11T07:51:28;33.60;1.00
4787;DHT22;62338;48.832;9.422;2022-08-11T07:56:00;33.30;1.00
4787;DHT22;62338;48.832;9.422;2022-08-11T07:58:06;33.20;1.00
4787;DHT22;62338;48.832;9.422;2022-08-11T08:00:51;33.40;1.00
4787;DHT22;62338;48.832;9.422;2022-08-11T08:03:23;33.20;1.00
4787;DHT22;62338;48.832;9.422;2022-08-11T08:06:01;33.20;1.00
4787;DHT22;62338;48.832;9.422;2022-08-11T08:08:39;33.60;1.00
4787;DHT22;62338;48.832;9.422;2022-08-11T08:11:03;33.70;1.00
4787;DHT22;62338;48.832;9.422;2022-08-11T08:13:31;33.90;1.00
4787;DHT22;62338;48.832;9.422;2022-08-11T08:15:54;34.00;1.00
4787;DHT22;62338;48.832;9.422;2022-08-11T08:18:22;33.80;1.00
4787;DHT22;62338;48.832;9.422;2022-08-11T08:20:43;33.60;1.00
4787;DHT22;62338;48.832;9.422;2022-08-11T08:22:54;33.70;1.00
4787;DHT22;62338;48.832;9.422;2022-08-11T08:25:01;34.00;1.00
4787;DHT22;62338;48.832;9.422;2022-08-11T08:27:04;34.30;1.00
4787;DHT22;62338;48.832;9.422;2022-08-11T08:29:07;34.40;1.00
4787;DHT22;62338;48.832;9.422;2022-08-11T08:31:28;34.60;1.00
4787;DHT22;62338;48.832;9.422;2022-08-11T08:33:32;34.10;1.00
4787;DHT22;62338;48.832;9.422;2022-08-11T08:35:37;34.50;1.00
4787;DHT22;62338;48.832;9.422;2022-08-11T08:37:57;34.50;1.00
4787;DHT22;62338;48.832;9.422;2022-08-11T08:40:01;34.60;1.00
4787;DHT22;62338;48.832;9.422;2022-08-11T08:42:09;35.10;1.00
4787;DHT22;62338;48.832;9.422;2022-08-11T08:44:13;35.20;1.00
4787;DHT22;62338;48.832;9.422;2022-08-11T08:46:43;35.20;1.00
4787;DHT22;62338;48.832;9.422;2022-08-11T08:48:48;35.00;1.00
4787;DHT22;62338;48.832;9.422;2022-08-11T08:51:08;35.20;1.00
4787;DHT22;62338;48.832;9.422;2022-08-11T08:53:51;35.20;1.00
4787;DHT22;62338;48.832;9.422;2022-08-11T08:56:06;34.90;1.00
4787;DHT22;62338;48.832;9.422;2022-08-11T08:58:12;34.70;1.00
4787;DHT22;62338;48.832;9.422;2022-08-11T09:00:19;34.50;1.00
4787;DHT22;62338;48.832;9.422;2022-08-11T09:02:25;34.90;1.00
4787;DHT22;62338;48.832;9.422;2022-08-11T09:04:35;35.00;1.00
4787;DHT22;62338;48.832;9.422;2022-08-11T09:06:40;35.20;1.00
4787;DHT22;62338;48.832;9.422;2022-08-11T09:08:57;35.30;1.00
4787;DHT22;62338;48.832;9.422;2022-08-11T09:11:03;35.40;1.00
4787;DHT22;62338;48.832;9.422;2022-08-11T09:13:27;35.40;1.00
4787;DHT22;62338;48.832;9.422;2022-08-11T09:15:29;35.40;1.00
4787;DHT22;62338;48.832;9.422;2022-08-11T09:17:40;35.20;1.00
4787;DHT22;62338;48.832;9.422;2022-08-11T09:19:46;35.30;1.00
4787;DHT22;62338;48.832;9.422;2022-08-11T09:21:57;35.30;1.00
4787;DHT22;62338;48.832;9.422;2022-08-11T09:24:21;35.30;1.00
4787;DHT22;62338;48.832;9.422;2022-08-11T09:26:43;35.00;1.00
4787;DHT22;62338;48.832;9.422;2022-08-11T09:29:13;35.20;1.00
4787;DHT22;62338;48.832;9.422;2022-08-11T09:31:16;35.50;1.00
4787;DHT22;62338;48.832;9.422;2022-08-11T09:33:23;35.50;1.00
4787;DHT22;62338;48.832;9.422;2022-08-11T09:35:27;35.60;1.00
4787;DHT22;62338;48.832;9.422;2022-08-11T09:37:32;35.40;1.00
4787;DHT22;62338;48.832;9.422;2022-08-11T09:39:58;35.40;1.00
4787;DHT22;62338;48.832;9.422;2022-08-11T09:42:20;35.50;1.00
4787;DHT22;62338;48.832;9.422;2022-08-11T09:44:25;35.50;1.00
4787;DHT22;62338;48.832;9.422;2022-08-11T09:46:54;35.80;1.00
4787;DHT22;62338;48.832;9.422;2022-08-11T09:48:58;36.30;1.00
4787;DHT22;62338;48.832;9.422;2022-08-11T09:51:02;36.30;1.00
4787;DHT22;62338;48.832;9.422;2022-08-11T09:53:05;36.30;1.00
4787;DHT22;62338;48.832;9.422;2022-08-11T09:55:28;36.00;1.00
4787;DHT22;62338;48.832;9.422;2022-08-11T09:57:43;35.80;1.00
4787;DHT22;62338;48.832;9.422;2022-08-11T10:00:07;35.90;1.00
4787;DHT22;62338;48.832;9.422;2022-08-11T10:02:15;36.00;1.00
4787;DHT22;62338;48.832;9.422;2022-08-11T10:04:39;36.10;1.00
4787;DHT22;62338;48.832;9.422;2022-08-11T10:06:48;35.60;1.00
4787;DHT22;62338;48.832;9.422;2022-08-11T10:09:06;35.70;1.00
4787;DHT22;62338;48.832;9.422;2022-08-11T10:11:11;35.90;1.00
4787;DHT22;62338;48.832;9.422;2022-08-11T10:13:18;36.20;1.00
4787;DHT22;62338;48.832;9.422;2022-08-11T10:15:51;36.80;1.00
4787;DHT22;62338;48.832;9.422;2022-08-11T10:18:28;37.20;1.00
4787;DHT22;62338;48.832;9.422;2022-08-11T10:20:46;36.80;1.00
4787;DHT22;62338;48.832;9.422;2022-08-11T10:22:52;37.10;1.00
4787;DHT22;62338;48.832;9.422;2022-08-11T10:25:13;37.10;1.00
4787;DHT22;62338;48.832;9.422;2022-08-11T10:27:38;37.00;1.00
4787;DHT22;62338;48.832;9.422;2022-08-11T10:30:03;36.90;1.00
4787;DHT22;62338;48.832;9.422;2022-08-11T10:32:29;36.90;1.00
4787;DHT22;62338;48.832;9.422;2022-08-11T10:35:02;36.80;1.00
4787;DHT22;62338;48.832;9.422;2022-08-11T10:37:12;36.90;1.00
4787;DHT22;62338;48.832;9.422;2022-08-11T10:39:20;37.10;1.00
4787;DHT22;62338;48.832;9.422;2022-08-11T10:41:24;37.10;1.00
4787;DHT22;62338;48.832;9.422;2022-08-11T10:44:07;36.70;1.00
4787;DHT22;62338;48.832;9.422;2022-08-11T10:46:12;36.80;1.00
4787;DHT22;62338;48.832;9.422;2022-08-11T10:48:36;36.70;1.00
4787;DHT22;62338;48.832;9.422;2022-08-11T10:50:45;36.40;1.00
4787;DHT22;62338;48.832;9.422;2022-08-11T10:53:08;36.40;1.00
4787;DHT22;62338;48.832;9.422;2022-08-11T10:55:29;36.40;1.00
4787;DHT22;62338;48.832;9.422;2022-08-11T10:57:50;36.60;1.00
4787;DHT22;62338;48.832;9.422;2022-08-11T11:00:14;36.70;1.00
4787;DHT22;62338;48.832;9.422;2022-08-11T11:02:19;36.70;1.00
4787;DHT22;62338;48.832;9.422;2022-08-11T11:04:33;36.70;1.00
4787;DHT22;62338;48.832;9.422;2022-08-11T11:09:07;35.90;99.90
4787;DHT22;62338;48.832;9.422;2022-08-11T11:11:14;36.30;1.00
4787;DHT22;62338;48.832;9.422;2022-08-11T11:13:23;36.70;1.00
4787;DHT22;62338;48.832;9.422;2022-08-11T11:15:56;36.80;99.90
4787;DHT22;62338;48.832;9.422;2022-08-11T11:18:31;36.30;99.90
4787;DHT22;62338;48.832;9.422;2022-08-11T11:20:44;36.10;99.90
4787;DHT22;62338;48.832;9.422;2022-08-11T11:22:52;35.90;99.90
4787;DHT22;62338;48.832;9.422;2022-08-11T11:25:09;36.00;99.90
4787;DHT22;62338;48.832;9.422;2022-08-11T11:27:39;36.20;99.90
4787;DHT22;62338;48.832;9.422;2022-08-11T11:30:00;36.60;99.90
4787;DHT22;62338;48.832;9.422;2022-08-11T11:33:10;36.30;99.90
4787;DHT22;62338;48.832;9.422;2022-08-11T11:37:21;36.20;99.90
4787;DHT22;62338;48.832;9.422;2022-08-11T11:39:26;36.20;99.90
4787;DHT22;62338;48.832;9.422;2022-08-11T11:41:28;35.70;99.90
4787;DHT22;62338;48.832;9.422;2022-08-11T11:43:34;35.50;99.90
4787;DHT22;62338;48.832;9.422;2022-08-11T11:45:44;35.70;99.90
4787;DHT22;62338;48.832;9.422;2022-08-11T11:47:50;35.50;99.90
4787;DHT22;62338;48.832;9.422;2022-08-11T11:49:54;35.40;99.90
4787;DHT22;62338;48.832;9.422;2022-08-11T11:52:00;35.70;99.90
4787;DHT22;62338;48.832;9.422;2022-08-11T11:54:04;36.00;99.90
4787;DHT22;62338;48.832;9.422;2022-08-11T11:56:12;36.40;99.90
4787;DHT22;62338;48.832;9.422;2022-08-11T11:58:20;36.80;99.90
4787;DHT22;62338;48.832;9.422;2022-08-11T12:00:43;36.80;99.90
4787;DHT22;62338;48.832;9.422;2022-08-11T12:03:09;36.80;99.90
4787;DHT22;62338;48.832;9.422;2022-08-11T12:05:16;36.80;99.90
4787;DHT22;62338;48.832;9.422;2022-08-11T12:07:21;36.50;99.90
4787;DHT22;62338;48.832;9.422;2022-08-11T12:10:06;36.20;99.90
4787;DHT22;62338;48.832;9.422;2022-08-11T12:12:08;36.20;99.90
4787;DHT22;62338;48.832;9.422;2022-08-11T12:14:29;36.00;99.90
4787;DHT22;62338;48.832;9.422;2022-08-11T12:16:36;36.00;99.90
4787;DHT22;62338;48.832;9.422;2022-08-11T12:18:41;36.10;99.90
4787;DHT22;62338;48.832;9.422;2022-08-11T12:20:44;36.30;99.90
4787;DHT22;62338;48.832;9.422;2022-08-11T12:22:47;36.40;99.90
4787;DHT22;62338;48.832;9.422;2022-08-11T12:25:09;35.70;99.90
4787;DHT22;62338;48.832;9.422;2022-08-11T12:27:31;35.60;99.90
4787;DHT22;62338;48.832;9.422;2022-08-11T12:29:38;34.90;99.90
4787;DHT22;62338;48.832;9.422;2022-08-11T12:31:45;35.20;99.90
4787;DHT22;62338;48.832;9.422;2022-08-11T12:36:10;36.00;99.90
4787;DHT22;62338;48.832;9.422;2022-08-11T12:38:19;36.40;99.90
4787;DHT22;62338;48.832;9.422;2022-08-11T12:40:32;36.40;99.90
4787;DHT22;62338;48.832;9.422;2022-08-11T12:43:16;36.60;99.90
4787;DHT22;62338;48.832;9.422;2022-08-11T12:45:41;36.70;99.90
4787;DHT22;62338;48.832;9.422;2022-08-11T12:47:51;37.00;99.90
4787;DHT22;62338;48.832;9.422;2022-08-11T12:50:34;37.20;99.90
4787;DHT22;62338;48.832;9.422;2022-08-11T12:52:54;37.50;99.90
4787;DHT22;62338;48.832;9.422;2022-08-11T12:55:10;37.30;99.90
4787;DHT22;62338;48.832;9.422;2022-08-11T12:57:16;37.50;99.90
4787;DHT22;62338;48.832;9.422;2022-08-11T12:59:50;37.60;99.90
4787;DHT22;62338;48.832;9.422;2022-08-11T13:02:16;37.10;99.90
4787;DHT22;62338;48.832;9.422;2022-08-11T13:04:43;37.20;99.90
4787;DHT22;62338;48.832;9.422;2022-08-11T13:07:06;37.40;99.90
4787;DHT22;62338;48.832;9.422;2022-08-11T13:09:10;37.40;99.90
4787;DHT22;62338;48.832;9.422;2022-08-11T13:11:18;37.50;99.90
4787;DHT22;62338;48.832;9.422;2022-08-11T13:13:57;37.60;99.90
4787;DHT22;62338;48.832;9.422;2022-08-11T13:16:03;37.40;99.90
4787;DHT22;62338;48.832;9.422;2022-08-11T13:18:07;37.50;99.90
4787;DHT22;62338;48.832;9.422;2022-08-11T13:20:16;37.80;99.90
4787;DHT22;62338;48.832;9.422;2022-08-11T13:22:21;38.00;99.90
4787;DHT22;62338;48.832;9.422;2022-08-11T13:24:27;37.80;99.90
4787;DHT22;62338;48.832;9.422;2022-08-11T13:26:36;37.80;99.90
4787;DHT22;62338;48.832;9.422;2022-08-11T13:28:52;37.80;99.90
4787;DHT22;62338;48.832;9.422;2022-08-11T13:31:00;38.10;99.90
4787;DHT22;62338;48.832;9.422;2022-08-11T13:33:17;38.30;99.90
4787;DHT22;62338;48.832;9.422;2022-08-11T13:35:21;38.10;99.90
4787;DHT22;62338;48.832;9.422;2022-08-11T13:37:24;38.10;99.90
4787;DHT22;62338;48.832;9.422;2022-08-11T13:39:53;38.00;99.90
4787;DHT22;62338;48.832;9.422;2022-08-11T13:42:05;37.80;99.90
4787;DHT22;62338;48.832;9.422;2022-08-11T13:44:25;38.00;99.90
4787;DHT22;62338;48.832;9.422;2022-08-11T13:46:28;38.00;99.90
4787;DHT22;62338;48.832;9.422;2022-08-11T13:48:33;37.50;99.90
4787;DHT22;62338;48.832;9.422;2022-08-11T13:50:36;37.40;99.90
4787;DHT22;62338;48.832;9.422;2022-08-11T13:53:01;37.40;99.90
4787;DHT22;62338;48.832;9.422;2022-08-11T13:55:06;37.40;99.90
4787;DHT22;62338;48.832;9.422;2022-08-11T13:57:14;37.20;99.90
4787;DHT22;62338;48.832;9.422;2022-08-11T13:59:46;37.00;99.90
4787;DHT22;62338;48.832;9.422;2022-08-11T14:02:04;36.70;99.90
4787;DHT22;62338;48.832;9.422;2022-08-11T14:04:35;37.20;99.90
4787;DHT22;62338;48.832;9.422;2022-08-11T14:06:47;37.40;99.90
4787;DHT22;62338;48.832;9.422;2022-08-11T14:08:55;37.20;99.90
4787;DHT22;62338;48.832;9.422;2022-08-11T14:11:11;37.20;99.90
4787;DHT22;62338;48.832;9.422;2022-08-11T14:13:54;37.40;99.90
4787;DHT22;62338;48.832;9.422;2022-08-11T14:16:14;37.70;99.90
4787;DHT22;62338;48.832;9.422;2022-08-11T14:18:21;37.70;99.90
4787;DHT22;62338;48.832;9.422;2022-08-11T14:20:27;37.80;99.90
4787;DHT22;62338;48.832;9.422;2022-08-11T14:22:54;38.00;99.90
4787;DHT22;62338;48.832;9.422;2022-08-11T14:25:01;37.10;99.90
4787;DHT22;62338;48.832;9.422;2022-08-11T14:27:07;37.10;99.90
4787;DHT22;62338;48.832;9.422;2022-08-11T14:29:32;37.10;99.90
4787;DHT22;62338;48.832;9.422;2022-08-11T14:32:02;37.10;99.90
4787;DHT22;62338;48.832;9.422;2022-08-11T14:34:06;36.80;99.90
4787;DHT22;62338;48.832;9.422;2022-08-11T14:36:11;36.70;99.90
4787;DHT22;62338;48.832;9.422;2022-08-11T14:38:16;36.90;99.90
4787;DHT22;62338;48.832;9.422;2022-08-11T14:40:20;36.70;99.90
4787;DHT22;62338;48.832;9.422;2022-08-11T14:42:41;36.50;99.90
4787;DHT22;62338;48.832;9.422;2022-08-11T14:45:08;36.60;99.90
4787;DHT22;62338;48.832;9.422;2022-08-11T14:47:55;36.40;99.90
4787;DHT22;62338;48.832;9.422;2022-08-11T14:49:58;36.70;99.90
4787;DHT22;62338;48.832;9.422;2022-08-11T14:52:15;36.90;99.90
4787;DHT22;62338;48.832;9.422;2022-08-11T14:54:18;36.80;99.90
4787;DHT22;62338;48.832;9.422;2022-08-11T14:56:39;36.70;99.90
4787;DHT22;62338;48.832;9.422;2022-08-11T14:58:41;36.30;99.90
4787;DHT22;62338;48.832;9.422;2022-08-11T15:00:44;36.00;99.90
4787;DHT22;62338;48.832;9.422;2022-08-11T15:02:47;35.80;99.90
4787;DHT22;62338;48.832;9.422;2022-08-11T15:05:11;35.70;99.90
4787;DHT22;62338;48.832;9.422;2022-08-11T15:07:14;35.50;99.90
4787;DHT22;62338;48.832;9.422;2022-08-11T15:09:19;35.30;99.90
4787;DHT22;62338;48.832;9.422;2022-08-11T15:11:28;35.20;99.90
4787;DHT22;62338;48.832;9.422;2022-08-11T15:13:49;35.10;99.90
4787;DHT22;62338;48.832;9.422;2022-08-11T15:15:51;35.20;99.90
4787;DHT22;62338;48.832;9.422;2022-08-11T15:18:14;35.40;99.90
4787;DHT22;62338;48.832;9.422;2022-08-11T15:20:20;35.30;99.90
4787;DHT22;62338;48.832;9.422;2022-08-11T15:22:41;35.20;99.90
4787;DHT22;62338;48.832;9.422;2022-08-11T15:25:02;34.90;99.90
4787;DHT22;62338;48.832;9.422;2022-08-11T15:27:16;35.00;99.90
4787;DHT22;62338;48.832;9.422;2022-08-11T15:29:40;35.00;99.90
4787;DHT22;62338;48.832;9.422;2022-08-11T15:32:03;34.90;99.90
4787;DHT22;62338;48.832;9.422;2022-08-11T15:34:26;34.90;99.90
4787;DHT22;62338;48.832;9.422;2022-08-11T15:37:01;34.90;99.90
4787;DHT22;62338;48.832;9.422;2022-08-11T15:39:26;34.70;99.90
4787;DHT22;62338;48.832;9.422;2022-08-11T15:41:40;34.60;99.90
4787;DHT22;62338;48.832;9.422;2022-08-11T15:44:07;34.50;99.90
4787;DHT22;62338;48.832;9.422;2022-08-11T15:46:54;34.40;99.90
4787;DHT22;62338;48.832;9.422;2022-08-11T15:51:17;34.50;99.90
4787;DHT22;62338;48.832;9.422;2022-08-11T15:53:37;34.00;99.90
4787;DHT22;62338;48.832;9.422;2022-08-11T15:55:42;33.60;99.90
4787;DHT22;62338;48.832;9.422;2022-08-11T15:57:47;33.50;99.90
4787;DHT22;62338;48.832;9.422;2022-08-11T16:00:09;33.40;99.90
4787;DHT22;62338;48.832;9.422;2022-08-11T16:02:30;33.20;99.90
4787;DHT22;62338;48.832;9.422;2022-08-11T16:04:51;33.10;99.90
4787;DHT22;62338;48.832;9.422;2022-08-11T16:07:02;33.10;99.90
4787;DHT22;62338;48.832;9.422;2022-08-11T16:09:06;33.00;99.90
4787;DHT22;62338;48.832;9.422;2022-08-11T16:11:19;32.90;99.90
4787;DHT22;62338;48.832;9.422;2022-08-11T16:13:22;32.80;99.90
4787;DHT22;62338;48.832;9.422;2022-08-11T16:15:24;32.80;99.90
4787;DHT22;62338;48.832;9.422;2022-08-11T16:17:51;32.90;99.90
4787;DHT22;62338;48.832;9.422;2022-08-11T16:19:55;32.90;99.90
4787;DHT22;62338;48.832;9.422;2022-08-11T16:22:01;32.70;99.90
4787;DHT22;62338;48.832;9.422;2022-08-11T16:24:09;32.50;99.90
4787;DHT22;62338;48.832;9.422;2022-08-11T16:26:32;32.70;99.90
4787;DHT22;62338;48.832;9.422;2022-08-11T16:28:59;32.70;99.90
4787;DHT22;62338;48.832;9.422;2022-08-11T16:31:03;32.30;99.90
4787;DHT22;62338;48.832;9.422;2022-08-11T16:33:11;32.10;99.90
4787;DHT22;62338;48.832;9.422;2022-08-11T16:35:36;32.00;99.90
4787;DHT22;62338;48.832;9.422;2022-08-11T16:37:59;31.80;99.90
4787;DHT22;62338;48.832;9.422;2022-08-11T16:40:20;31.50;99.90
4787;DHT22;62338;48.832;9.422;2022-08-11T16:42:23;31.00;99.90
4787;DHT22;62338;48.832;9.422;2022-08-11T16:45:04;30.80;99.90
4787;DHT22;62338;48.832;9.422;2022-08-11T16:47:25;30.50;99.90
4787;DHT22;62338;48.832;9.422;2022-08-11T16:49:50;30.30;99.90
4787;DHT22;62338;48.832;9.422;2022-08-11T16:51:53;30.00;99.90
4787;DHT22;62338;48.832;9.422;2022-08-11T16:53:57;29.90;99.90
4787;DHT22;62338;48.832;9.422;2022-08-11T16:56:08;29.80;99.90
4787;DHT22;62338;48.832;9.422;2022-08-11T16:58:13;29.70;99.90
4787;DHT22;62338;48.832;9.422;2022-08-11T17:00:34;29.50;99.90
4787;DHT22;62338;48.832;9.422;2022-08-11T17:02:50;29.50;99.90
4787;DHT22;62338;48.832;9.422;2022-08-11T17:05:15;29.90;99.90
4787;DHT22;62338;48.832;9.422;2022-08-11T17:07:41;29.90;99.90
4787;DHT22;62338;48.832;9.422;2022-08-11T17:10:05;30.00;99.90
4787;DHT22;62338;48.832;9.422;2022-08-11T17:12:49;30.10;99.90
4787;DHT22;62338;48.832;9.422;2022-08-11T17:15:17;30.30;99.90
4787;DHT22;62338;48.832;9.422;2022-08-11T17:17:39;30.50;99.90
4787;DHT22;62338;48.832;9.422;2022-08-11T17:19:47;30.40;99.90
4787;DHT22;62338;48.832;9.422;2022-08-11T17:22:11;30.30;99.90
4787;DHT22;62338;48.832;9.422;2022-08-11T17:24:38;30.10;99.90
4787;DHT22;62338;48.832;9.422;2022-08-11T17:26:44;30.00;99.90
4787;DHT22;62338;48.832;9.422;2022-08-11T17:28:59;29.90;99.90
4787;DHT22;62338;48.832;9.422;2022-08-11T17:31:02;30.00;99.90
4787;DHT22;62338;48.832;9.422;2022-08-11T17:33:24;30.00;99.90
4787;DHT22;62338;48.832;9.422;2022-08-11T17:35:45;29.90;99.90
4787;DHT22;62338;48.832;9.422;2022-08-11T17:37:49;29.50;99.90
4787;DHT22;62338;48.832;9.422;2022-08-11T17:39:52;29.10;99.90
4787;DHT22;62338;48.832;9.422;2022-08-11T17:41:59;28.90;99.90
4787;DHT22;62338;48.832;9.422;2022-08-11T17:44:19;28.40;99.90
4787;DHT22;62338;48.832;9.422;2022-08-11T17:46:40;28.00;99.90
4787;DHT22;62338;48.832;9.422;2022-08-11T17:49:09;27.50;99.90
4787;DHT22;62338;48.832;9.422;2022-08-11T17:51:16;27.00;99.90
4787;DHT22;62338;48.832;9.422;2022-08-11T17:53:42;26.70;99.90
4787;DHT22;62338;48.832;9.422;2022-08-11T17:56:25;26.30;99.90
4787;DHT22;62338;48.832;9.422;2022-08-11T17:58:47;26.00;99.90
4787;DHT22;62338;48.832;9.422;2022-08-11T18:01:11;25.80;99.90
4787;DHT22;62338;48.832;9.422;2022-08-11T18:03:13;25.60;99.90
4787;DHT22;62338;48.832;9.422;2022-08-11T18:05:35;25.30;99.90
4787;DHT22;62338;48.832;9.422;2022-08-11T18:07:40;25.10;99.90
4787;DHT22;62338;48.832;9.422;2022-08-11T18:10:03;24.90;99.90
4787;DHT22;62338;48.832;9.422;2022-08-11T18:12:24;24.70;99.90
4787;DHT22;62338;48.832;9.422;2022-08-11T18:14:48;24.60;99.90
4787;DHT22;62338;48.832;9.422;2022-08-11T18:17:11;24.50;99.90
4787;DHT22;62338;48.832;9.422;2022-08-11T18:19:31;24.30;99.90
4787;DHT22;62338;48.832;9.422;2022-08-11T18:22:04;24.20;99.90
4787;DHT22;62338;48.832;9.422;2022-08-11T18:24:26;24.00;99.90
4787;DHT22;62338;48.832;9.422;2022-08-11T18:26:50;23.90;99.90
4787;DHT22;62338;48.832;9.422;2022-08-11T18:29:15;23.80;99.90
4787;DHT22;62338;48.832;9.422;2022-08-11T18:31:46;23.60;99.90
4787;DHT22;62338;48.832;9.422;2022-08-11T18:34:13;23.50;99.90
4787;DHT22;62338;48.832;9.422;2022-08-11T18:36:43;23.40;99.90
4787;DHT22;62338;48.832;9.422;2022-08-11T18:39:07;23.30;99.90
4787;DHT22;62338;48.832;9.422;2022-08-11T18:41:31;23.10;99.90
4787;DHT22;62338;48.832;9.422;2022-08-11T18:43:56;23.00;99.90
4787;DHT22;62338;48.832;9.422;2022-08-11T18:46:19;22.90;99.90
4787;DHT22;62338;48.832;9.422;2022-08-11T18:48:50;22.80;99.90
4787;DHT22;62338;48.832;9.422;2022-08-11T18:51:16;22.70;99.90
4787;DHT22;62338;48.832;9.422;2022-08-11T18:53:41;22.60;99.90
4787;DHT22;62338;48.832;9.422;2022-08-11T18:56:01;22.60;99.90
4787;DHT22;62338;48.832;9.422;2022-08-11T18:58:27;22.50;99.90
4787;DHT22;62338;48.832;9.422;2022-08-11T19:00:49;22.40;99.90
4787;DHT22;62338;48.832;9.422;2022-08-11T19:03:13;22.30;99.90
4787;DHT22;62338;48.832;9.422;2022-08-11T19:05:50;22.20;99.90
4787;DHT22;62338;48.832;9.422;2022-08-11T19:08:40;22.10;99.90
4787;DHT22;62338;48.832;9.422;2022-08-11T19:11:01;22.00;99.90
4787;DHT22;62338;48.832;9.422;2022-08-11T19:13:23;21.90;99.90
4787;DHT22;62338;48.832;9.422;2022-08-11T19:15:49;21.80;99.90
4787;DHT22;62338;48.832;9.422;2022-08-11T19:18:12;21.80;99.90
4787;DHT22;62338;48.832;9.422;2022-08-11T19:20:34;21.70;99.90
4787;DHT22;62338;48.832;9.422;2022-08-11T19:22:56;21.70;99.90
4787;DHT22;62338;48.832;9.422;2022-08-11T19:25:19;21.60;99.90
4787;DHT22;62338;48.832;9.422;2022-08-11T19:27:40;21.60;99.90
4787;DHT22;62338;48.832;9.422;2022-08-11T19:30:03;21.50;99.90
4787;DHT22;62338;48.832;9.422;2022-08-11T19:32:25;21.50;99.90
4787;DHT22;62338;48.832;9.422;2022-08-11T19:34:46;21.50;99.90
4787;DHT22;62338;48.832;9.422;2022-08-11T19:37:08;21.50;99.90
4787;DHT22;62338;48.832;9.422;2022-08-11T19:39:29;21.40;99.90
4787;DHT22;62338;48.832;9.422;2022-08-11T19:41:50;21.40;99.90
4787;DHT22;62338;48.832;9.422;2022-08-11T19:44:12;21.30;99.90
4787;DHT22;62338;48.832;9.422;2022-08-11T19:46:35;21.30;99.90
4787;DHT22;62338;48.832;9.422;2022-08-11T19:48:58;21.30;99.90
4787;DHT22;62338;48.832;9.422;2022-08-11T19:51:19;21.30;99.90
4787;DHT22;62338;48.832;9.422;2022-08-11T19:53:41;21.30;99.90
4787;DHT22;62338;48.832;9.422;2022-08-11T19:56:04;21.20;99.90
4787;DHT22;62338;48.832;9.422;2022-08-11T19:58:25;21.20;99.90